createdAt,value
2022-07-31T00:01:07.666Z,98497.00
2022-07-31T00:03:42.277Z,98503.50
2022-07-31T00:06:12.626Z,98507.34
2022-07-31T00:08:43.783Z,98505.47
2022-07-31T00:11:15.315Z,98508.16
2022-07-31T00:13:56.840Z,98508.97
2022-07-31T00:16:27.406Z,98515.38
2022-07-31T00:19:07.821Z,98519.00
2022-07-31T00:21:42.046Z,98511.06
2022-07-31T00:24:19.720Z,98516.41
2022-07-31T00:27:00.113Z,98523.53
2022-07-31T00:29:32.856Z,98523.72
2022-07-31T00:32:07.075Z,98520.97
2022-07-31T00:34:43.224Z,98513.88
2022-07-31T00:37:15.778Z,98502.72
2022-07-31T00:39:47.629Z,98508.53
2022-07-31T00:42:29.847Z,98520.25
2022-07-31T00:45:10.513Z,98525.25
2022-07-31T00:47:55.800Z,98531.13
2022-07-31T00:50:30.893Z,98515.63
2022-07-31T00:53:05.935Z,98520.38
2022-07-31T00:55:51.212Z,98524.88
2022-07-31T00:58:22.124Z,98526.28
2022-07-31T01:01:05.554Z,98529.50
2022-07-31T01:03:37.868Z,98529.91
2022-07-31T01:06:22.633Z,98523.81
2022-07-31T01:08:53.716Z,98531.16
2022-07-31T01:11:59.552Z,98509.09
2022-07-31T01:14:42.151Z,98515.25
2022-07-31T01:17:22.705Z,98516.41
2022-07-31T01:19:53.610Z,98502.44
2022-07-31T01:23:20.870Z,98506.88
2022-07-31T01:27:02.839Z,98496.75
2022-07-31T01:30:00.243Z,98501.63
2022-07-31T01:32:52.488Z,98504.50
2022-07-31T01:35:31.837Z,98500.16
2022-07-31T01:38:23.705Z,98516.63
2022-07-31T01:41:01.870Z,98520.59
2022-07-31T01:43:42.203Z,98521.38
2022-07-31T01:46:16.381Z,98510.13
2022-07-31T01:48:56.193Z,98505.69
2022-07-31T01:51:44.438Z,98507.72
2022-07-31T01:54:17.655Z,98514.97
2022-07-31T01:56:55.504Z,98514.81
2022-07-31T01:59:26.792Z,98523.66
2022-07-31T02:02:33.977Z,98514.31
2022-07-31T02:05:18.956Z,98513.44
2022-07-31T02:07:55.039Z,98499.84
2022-07-31T02:10:34.534Z,98512.22
2022-07-31T02:13:16.221Z,98510.13
2022-07-31T02:16:02.568Z,98518.84
2022-07-31T02:18:42.691Z,98517.22
2022-07-31T02:21:27.242Z,98525.41
2022-07-31T02:23:59.725Z,98515.41
2022-07-31T02:26:42.444Z,98528.66
2022-07-31T02:29:26.917Z,98510.16
2022-07-31T02:32:03.451Z,98510.25
2022-07-31T02:34:37.056Z,98496.06
2022-07-31T02:37:12.738Z,98499.22
2022-07-31T02:39:43.908Z,98504.66
2022-07-31T02:42:16.479Z,98490.69
2022-07-31T02:44:47.460Z,98490.13
2022-07-31T02:47:24.442Z,98493.13
2022-07-31T02:49:55.098Z,98475.09
2022-07-31T02:52:29.229Z,98457.91
2022-07-31T02:55:15.059Z,98473.00
2022-07-31T02:57:51.271Z,98466.25
2022-07-31T03:00:29.549Z,98466.25
2022-07-31T03:03:04.999Z,98474.78
2022-07-31T03:05:49.165Z,98478.38
2022-07-31T03:08:35.294Z,98482.69
2022-07-31T03:11:13.759Z,98491.63
2022-07-31T03:13:54.130Z,98493.88
2022-07-31T03:16:23.300Z,98484.66
2022-07-31T03:18:58.942Z,98485.13
2022-07-31T03:21:30.193Z,98493.72
2022-07-31T03:24:03.868Z,98496.44
2022-07-31T03:26:35.685Z,98500.50
2022-07-31T03:29:03.972Z,98494.56
2022-07-31T03:31:49.430Z,98514.34
2022-07-31T03:34:20.046Z,98510.00
2022-07-31T03:36:50.649Z,98511.09
2022-07-31T03:39:22.062Z,98515.75
2022-07-31T03:41:55.717Z,98511.78
2022-07-31T03:44:27.986Z,98508.41
2022-07-31T03:47:00.563Z,98503.53
2022-07-31T03:49:36.804Z,98501.09
2022-07-31T03:52:12.498Z,98505.03
2022-07-31T03:54:46.592Z,98506.88
2022-07-31T03:57:26.954Z,98507.59
2022-07-31T04:00:16.641Z,98506.66
2022-07-31T04:03:15.021Z,98514.91
2022-07-31T04:06:07.657Z,98501.59
2022-07-31T04:08:38.495Z,98516.19
2022-07-31T04:11:14.214Z,98495.50
2022-07-31T04:13:44.912Z,98512.63
2022-07-31T04:16:19.477Z,98516.28
2022-07-31T04:18:52.920Z,98518.38
2022-07-31T04:21:28.928Z,98517.53
2022-07-31T04:24:14.385Z,98524.31
2022-07-31T04:27:21.491Z,98505.34
2022-07-31T04:29:55.173Z,98518.94
2022-07-31T04:32:26.314Z,98515.13
2022-07-31T04:35:03.953Z,98522.97
2022-07-31T04:37:48.043Z,98514.69
2022-07-31T04:40:24.784Z,98500.84
2022-07-31T04:43:13.224Z,98526.91
2022-07-31T04:45:47.470Z,98533.09
2022-07-31T04:48:33.123Z,98537.19
2022-07-31T04:51:15.524Z,98522.72
2022-07-31T04:53:46.356Z,98533.00
2022-07-31T04:56:35.915Z,98532.03
2022-07-31T04:59:09.203Z,98530.53
2022-07-31T05:01:50.238Z,98522.34
2022-07-31T05:04:28.585Z,98522.59
2022-07-31T05:07:06.843Z,98520.84
2022-07-31T05:09:37.385Z,98541.31
2022-07-31T05:12:13.996Z,98544.41
2022-07-31T05:14:45.995Z,98538.72
2022-07-31T05:17:20.485Z,98549.59
2022-07-31T05:20:11.494Z,98551.88
2022-07-31T05:23:08.682Z,98554.56
2022-07-31T05:25:54.018Z,98544.41
2022-07-31T05:28:33.036Z,98549.41
2022-07-31T05:31:05.936Z,98543.03
2022-07-31T05:33:37.083Z,98555.47
2022-07-31T05:36:17.935Z,98559.91
2022-07-31T05:38:51.787Z,98560.50
2022-07-31T05:41:44.159Z,98565.75
2022-07-31T05:44:36.471Z,98557.28
2022-07-31T05:47:15.269Z,98563.31
2022-07-31T05:49:47.472Z,98560.84
2022-07-31T05:55:47.880Z,98571.34
2022-07-31T05:58:51.485Z,98579.09
2022-07-31T06:01:25.011Z,98558.19
2022-07-31T06:07:06.085Z,98565.84
2022-07-31T06:09:40.101Z,98575.72
2022-07-31T06:12:13.035Z,98585.78
2022-07-31T06:14:45.518Z,98580.16
2022-07-31T06:17:43.855Z,98581.31
2022-07-31T06:20:43.004Z,98574.56
2022-07-31T06:26:13.007Z,98568.91
2022-07-31T06:28:48.791Z,98567.75
2022-07-31T06:31:23.457Z,98571.66
2022-07-31T06:33:59.433Z,98577.72
2022-07-31T06:36:48.008Z,98549.50
2022-07-31T06:39:21.868Z,98575.88
2022-07-31T06:42:17.389Z,98563.25
2022-07-31T06:45:25.217Z,98557.91
2022-07-31T06:48:32.497Z,98532.72
2022-07-31T06:51:31.701Z,98532.69
2022-07-31T06:54:17.840Z,98536.28
2022-07-31T06:56:49.542Z,98547.78
2022-07-31T06:59:39.278Z,98547.38
2022-07-31T07:02:13.800Z,98513.75
2022-07-31T07:05:06.029Z,98532.97
2022-07-31T07:07:44.269Z,98519.78
2022-07-31T07:10:26.346Z,98515.63
2022-07-31T07:13:46.158Z,98530.00
2022-07-31T07:16:21.913Z,98515.72
2022-07-31T07:18:56.533Z,98514.94
2022-07-31T07:21:30.990Z,98521.81
2022-07-31T07:24:09.072Z,98518.28
2022-07-31T07:26:48.982Z,98506.16
2022-07-31T07:29:21.838Z,98501.56
2022-07-31T07:32:04.717Z,98499.47
2022-07-31T07:34:38.325Z,98499.41
2022-07-31T07:37:07.790Z,98488.16
2022-07-31T07:39:41.799Z,98492.84
2022-07-31T07:42:27.727Z,98487.53
2022-07-31T07:45:02.230Z,98497.44
2022-07-31T07:48:02.343Z,98477.44
2022-07-31T07:50:36.161Z,98485.34
2022-07-31T07:56:36.998Z,98468.94
2022-07-31T07:59:45.921Z,98470.56
2022-07-31T08:02:40.431Z,98465.56
2022-07-31T08:05:24.040Z,98466.03
2022-07-31T08:08:03.731Z,98457.69
2022-07-31T08:11:07.199Z,98454.25
2022-07-31T08:13:49.276Z,98455.16
2022-07-31T08:16:33.222Z,98452.53
2022-07-31T08:19:07.562Z,98444.72
2022-07-31T08:21:44.062Z,98442.13
2022-07-31T08:24:21.198Z,98438.75
2022-07-31T08:27:11.299Z,98431.00
2022-07-31T08:29:45.629Z,98433.59
2022-07-31T08:32:24.412Z,98428.78
2022-07-31T08:35:19.986Z,98417.91
2022-07-31T08:38:03.714Z,98412.97
2022-07-31T08:40:43.716Z,98422.75
2022-07-31T08:44:01.440Z,98417.22
2022-07-31T08:46:07.984Z,98418.63
2022-07-31T08:48:51.715Z,98408.16
2022-07-31T08:51:24.299Z,98404.03
2022-07-31T08:54:12.491Z,98413.00
2022-07-31T08:56:58.149Z,98411.00
2022-07-31T08:59:29.303Z,98412.31
2022-07-31T09:02:01.186Z,98411.44
2022-07-31T09:04:37.799Z,98411.09
2022-07-31T09:07:08.207Z,98403.47
2022-07-31T09:09:52.160Z,98407.91
2022-07-31T09:12:39.798Z,98398.28
2022-07-31T09:15:36.617Z,98405.50
2022-07-31T09:18:30.390Z,98398.59
2022-07-31T09:21:16.313Z,98392.97
2022-07-31T09:23:57.495Z,98375.19
2022-07-31T09:26:37.860Z,98377.81
2022-07-31T09:29:12.056Z,98370.13
2022-07-31T09:31:44.360Z,98376.13
2022-07-31T09:34:51.018Z,98372.41
2022-07-31T09:37:24.128Z,98366.31
2022-07-31T09:40:23.815Z,98365.47
2022-07-31T09:43:51.506Z,98325.69
2022-07-31T09:46:21.819Z,98359.97
2022-07-31T09:48:59.827Z,98361.91
2022-07-31T09:51:54.735Z,98366.66
2022-07-31T09:54:32.229Z,98355.13
2022-07-31T09:57:15.904Z,98344.44
2022-07-31T10:00:00.610Z,98341.25
2022-07-31T10:02:33.328Z,98346.88
2022-07-31T10:05:07.172Z,98341.72
2022-07-31T10:07:51.347Z,98335.38
2022-07-31T10:10:32.841Z,98343.03
2022-07-31T10:13:22.762Z,98337.81
2022-07-31T10:16:00.451Z,98338.09
2022-07-31T10:19:00.264Z,98341.50
2022-07-31T10:22:06.669Z,98343.09
2022-07-31T10:24:49.861Z,98331.22
2022-07-31T10:27:26.315Z,98336.66
2022-07-31T10:30:02.456Z,98322.84
2022-07-31T10:32:38.892Z,98309.16
2022-07-31T10:35:32.559Z,98320.91
2022-07-31T10:39:17.548Z,98313.56
2022-07-31T10:42:50.471Z,98315.38
2022-07-31T10:45:27.450Z,98318.50
2022-07-31T10:48:24.063Z,98321.59
2022-07-31T10:51:19.167Z,98316.91
2022-07-31T10:54:26.440Z,98305.66
2022-07-31T10:57:56.147Z,98306.41
2022-07-31T11:00:46.568Z,98299.69
2022-07-31T11:03:44.852Z,98307.88
2022-07-31T11:06:50.190Z,98304.19
2022-07-31T11:09:45.416Z,98299.16
2022-07-31T11:13:15.007Z,98316.25
2022-07-31T11:16:16.071Z,98311.88
2022-07-31T11:19:25.593Z,98299.22
2022-07-31T11:22:30.451Z,98300.25
2022-07-31T11:24:59.818Z,98294.47
2022-07-31T11:27:33.414Z,98298.34
2022-07-31T11:30:13.608Z,98283.94
2022-07-31T11:32:58.031Z,98293.75
2022-07-31T11:35:35.572Z,98297.91
2022-07-31T11:38:09.505Z,98300.69
2022-07-31T11:40:44.775Z,98299.69
2022-07-31T11:43:31.532Z,98294.63
2022-07-31T11:46:05.324Z,98288.69
2022-07-31T11:48:44.929Z,98291.34
2022-07-31T11:51:26.773Z,98298.38
2022-07-31T11:53:58.686Z,98289.41
2022-07-31T11:56:37.281Z,98290.75
2022-07-31T11:59:06.084Z,98283.28
2022-07-31T12:01:41.002Z,98230.09
2022-07-31T12:04:31.267Z,98289.91
2022-07-31T12:07:05.293Z,98287.88
2022-07-31T12:10:00.770Z,98278.91
2022-07-31T12:12:40.167Z,98279.06
2022-07-31T12:15:26.470Z,98268.34
2022-07-31T12:18:10.636Z,98270.03
2022-07-31T12:20:42.076Z,98271.06
2022-07-31T12:23:40.784Z,98272.50
2022-07-31T12:26:14.185Z,98274.41
2022-07-31T12:28:48.070Z,98274.06
2022-07-31T12:31:35.826Z,98255.19
2022-07-31T12:34:08.780Z,98273.91
2022-07-31T12:36:45.863Z,98258.72
2022-07-31T12:39:14.410Z,98258.03
2022-07-31T12:41:45.458Z,98262.25
2022-07-31T12:44:22.183Z,98260.84
2022-07-31T12:46:56.265Z,98256.06
2022-07-31T12:49:40.952Z,98250.59
2022-07-31T12:52:14.385Z,98257.94
2022-07-31T12:54:49.549Z,98248.44
2022-07-31T12:57:26.129Z,98240.47
2022-07-31T13:00:09.999Z,98248.03
2022-07-31T13:02:42.857Z,98242.50
2022-07-31T13:05:14.505Z,98242.16
2022-07-31T13:07:46.246Z,98245.19
2022-07-31T13:10:34.821Z,98235.22
2022-07-31T13:13:08.521Z,98239.41
2022-07-31T13:15:44.323Z,98236.97
2022-07-31T13:18:18.346Z,98230.16
2022-07-31T13:20:49.039Z,98241.81
2022-07-31T13:23:21.926Z,98232.31
2022-07-31T13:25:55.397Z,98224.31
2022-07-31T13:28:32.080Z,98227.88
2022-07-31T13:31:06.123Z,98228.22
2022-07-31T13:33:36.999Z,98225.00
2022-07-31T13:36:13.250Z,98227.13
2022-07-31T13:38:45.557Z,98232.09
2022-07-31T13:41:30.929Z,98237.59
2022-07-31T13:44:06.153Z,98235.47
2022-07-31T13:46:37.452Z,98236.47
2022-07-31T13:49:12.517Z,98235.03
2022-07-31T13:51:56.753Z,98225.09
2022-07-31T13:54:31.609Z,98231.25
2022-07-31T13:57:03.361Z,98214.16
2022-07-31T13:59:37.044Z,98228.25
2022-07-31T14:02:08.337Z,98213.44
2022-07-31T14:04:46.585Z,98217.88
2022-07-31T14:07:23.009Z,98223.25
2022-07-31T14:10:26.162Z,98217.75
2022-07-31T14:12:57.285Z,98208.59
2022-07-31T14:15:35.754Z,98209.03
2022-07-31T14:18:21.059Z,98232.00
2022-07-31T14:21:01.580Z,98216.03
2022-07-31T14:23:38.815Z,98221.50
2022-07-31T14:26:18.842Z,98210.81
2022-07-31T14:28:53.046Z,98218.56
2022-07-31T14:31:23.497Z,98215.59
2022-07-31T14:33:54.209Z,98216.09
2022-07-31T14:36:28.821Z,98215.38
2022-07-31T14:39:04.620Z,98210.03
2022-07-31T14:41:48.549Z,98210.88
2022-07-31T14:44:21.451Z,98194.94
2022-07-31T14:47:04.611Z,98203.78
2022-07-31T14:50:07.922Z,98204.78
2022-07-31T14:52:42.930Z,98208.28
2022-07-31T14:55:12.582Z,98206.31
2022-07-31T14:57:41.269Z,98188.19
2022-07-31T15:00:16.592Z,98209.78
2022-07-31T15:02:53.308Z,98215.97
2022-07-31T15:06:37.510Z,98214.09
2022-07-31T15:08:16.154Z,98212.28
2022-07-31T15:10:52.595Z,98211.47
2022-07-31T15:13:22.660Z,98206.94
2022-07-31T15:15:55.723Z,98202.47
2022-07-31T15:18:27.097Z,98205.25
2022-07-31T15:21:08.519Z,98199.78
2022-07-31T15:23:53.004Z,98203.03
2022-07-31T15:26:33.003Z,98197.38
2022-07-31T15:29:04.441Z,98189.72
2022-07-31T15:31:38.535Z,98199.16
2022-07-31T15:34:10.613Z,98187.91
2022-07-31T15:36:44.681Z,98193.97
2022-07-31T15:39:18.124Z,98182.78
2022-07-31T15:41:53.707Z,98185.59
2022-07-31T15:44:25.425Z,98187.56
2022-07-31T15:46:56.364Z,98182.19
2022-07-31T15:49:24.252Z,98180.34
2022-07-31T15:52:18.548Z,98182.41
2022-07-31T15:54:52.196Z,98184.69
2022-07-31T15:57:32.206Z,98178.59
2022-07-31T16:00:02.797Z,98174.09
2022-07-31T16:02:47.718Z,98186.75
2022-07-31T16:05:37.100Z,98178.41
2022-07-31T16:08:29.262Z,98181.31
2022-07-31T16:11:07.074Z,98179.66
2022-07-31T16:13:38.597Z,98174.03
2022-07-31T16:16:11.884Z,98176.41
2022-07-31T16:18:42.773Z,98173.78
2022-07-31T16:21:12.298Z,98177.41
2022-07-31T16:23:46.204Z,98175.97
2022-07-31T16:26:20.374Z,98176.69
2022-07-31T16:28:54.730Z,98175.53
2022-07-31T16:31:41.631Z,98161.81
2022-07-31T16:34:18.118Z,98185.41
2022-07-31T16:36:48.882Z,98179.78
2022-07-31T16:39:24.815Z,98185.84
2022-07-31T16:42:04.876Z,98184.53
2022-07-31T16:44:38.730Z,98188.31
2022-07-31T16:47:15.829Z,98181.66
2022-07-31T16:49:53.627Z,98182.44
2022-07-31T16:52:24.179Z,98194.31
2022-07-31T16:55:00.690Z,98189.78
2022-07-31T16:57:33.121Z,98178.97
2022-07-31T17:00:09.733Z,98186.69
2022-07-31T17:02:44.330Z,98189.00
2022-07-31T17:05:25.099Z,98175.94
2022-07-31T17:07:57.009Z,98191.50
2022-07-31T17:10:30.792Z,98192.03
2022-07-31T17:13:08.575Z,98189.72
2022-07-31T17:15:44.767Z,98197.81
2022-07-31T17:18:30.807Z,98187.78
2022-07-31T17:21:07.464Z,98196.91
2022-07-31T17:23:44.494Z,98201.91
2022-07-31T17:26:37.240Z,98199.09
2022-07-31T17:29:15.966Z,98184.97
2022-07-31T17:31:52.529Z,98195.44
2022-07-31T17:34:23.214Z,98198.81
2022-07-31T17:36:54.197Z,98200.56
2022-07-31T17:39:30.631Z,98205.88
2022-07-31T17:42:09.816Z,98199.94
2022-07-31T17:44:49.815Z,98209.59
2022-07-31T17:47:38.827Z,98203.47
2022-07-31T17:50:09.857Z,98212.34
2022-07-31T17:52:46.793Z,98209.31
2022-07-31T17:58:05.515Z,98218.81
2022-07-31T18:00:37.282Z,98232.56
2022-07-31T18:03:10.544Z,98232.59
2022-07-31T18:05:43.256Z,98218.13
2022-07-31T18:08:23.176Z,98244.72
2022-07-31T18:10:55.946Z,98214.38
2022-07-31T18:13:48.687Z,98238.19
2022-07-31T18:16:33.124Z,98239.47
2022-07-31T18:19:16.574Z,98245.19
2022-07-31T18:21:53.218Z,98250.84
2022-07-31T18:24:24.734Z,98247.22
2022-07-31T18:27:07.656Z,98251.25
2022-07-31T18:29:37.778Z,98248.44
2022-07-31T18:32:17.726Z,98252.88
2022-07-31T18:34:50.487Z,98250.06
2022-07-31T18:37:24.828Z,98239.16
2022-07-31T18:40:03.321Z,98254.91
2022-07-31T18:42:44.335Z,98267.38
2022-07-31T18:45:26.098Z,98264.97
2022-07-31T18:48:00.569Z,98269.75
2022-07-31T18:50:59.455Z,98277.00
2022-07-31T18:53:34.767Z,98251.59
2022-07-31T18:56:10.276Z,98260.53
2022-07-31T18:58:43.263Z,98278.28
2022-07-31T19:01:15.436Z,98276.59
2022-07-31T19:03:51.962Z,98274.44
2022-07-31T19:06:23.748Z,98279.34
2022-07-31T19:09:04.720Z,98284.25
2022-07-31T19:11:41.287Z,98287.88
2022-07-31T19:14:31.554Z,98294.31
2022-07-31T19:17:18.469Z,98300.31
2022-07-31T19:20:02.071Z,98304.19
2022-07-31T19:22:45.244Z,98316.03
2022-07-31T19:25:20.264Z,98312.84
2022-07-31T19:27:59.567Z,98319.88
2022-07-31T19:30:35.764Z,98313.63
2022-07-31T19:33:07.843Z,98319.78
2022-07-31T19:35:58.584Z,98321.78
2022-07-31T19:38:37.097Z,98321.25
2022-07-31T19:41:13.627Z,98337.66
2022-07-31T19:43:46.858Z,98340.53
2022-07-31T19:46:39.845Z,98343.53
2022-07-31T19:49:11.760Z,98343.66
2022-07-31T19:51:45.584Z,98335.34
2022-07-31T19:54:16.443Z,98331.38
2022-07-31T19:56:52.820Z,98355.97
2022-07-31T19:59:36.732Z,98355.91
2022-07-31T20:02:15.177Z,98349.78
2022-07-31T20:04:51.503Z,98350.09
2022-07-31T20:07:33.328Z,98358.09
2022-07-31T20:10:09.780Z,98346.84
2022-07-31T20:12:49.652Z,98356.50
2022-07-31T20:15:22.298Z,98356.84
2022-07-31T20:18:07.659Z,98360.00
2022-07-31T20:20:41.642Z,98356.53
2022-07-31T20:23:15.334Z,98360.16
2022-07-31T20:25:50.443Z,98365.94
2022-07-31T20:28:22.092Z,98348.22
2022-07-31T20:30:59.146Z,98354.38
2022-07-31T20:33:28.397Z,98361.72
2022-07-31T20:36:07.329Z,98363.38
2022-07-31T20:38:37.555Z,98360.97
2022-07-31T20:41:14.680Z,98367.66
2022-07-31T20:43:48.310Z,98365.50
2022-07-31T20:46:19.417Z,98367.38
2022-07-31T20:48:52.247Z,98343.59
2022-07-31T20:51:24.559Z,98358.06
2022-07-31T20:54:03.070Z,98362.53
2022-07-31T20:56:44.775Z,98367.09
2022-07-31T20:59:15.981Z,98362.91
2022-07-31T21:01:51.934Z,98359.75
2022-07-31T21:04:42.068Z,98357.31
2022-07-31T21:07:17.816Z,98356.56
2022-07-31T21:09:48.736Z,98373.22
2022-07-31T21:12:32.485Z,98366.75
2022-07-31T21:15:18.752Z,98350.44
2022-07-31T21:18:07.984Z,98362.41
2022-07-31T21:20:51.228Z,98370.34
2022-07-31T21:23:24.251Z,98374.25
2022-07-31T21:26:02.172Z,98372.16
2022-07-31T21:28:43.307Z,98381.97
2022-07-31T21:31:23.432Z,98381.88
2022-07-31T21:33:55.989Z,98378.56
2022-07-31T21:36:29.530Z,98387.34
2022-07-31T21:38:59.854Z,98380.81
2022-07-31T21:41:30.648Z,98383.19
2022-07-31T21:44:04.629Z,98389.31
2022-07-31T21:46:51.809Z,98391.59
2022-07-31T21:49:28.628Z,98391.06
2022-07-31T21:51:59.144Z,98377.53
2022-07-31T21:54:27.707Z,98395.41
2022-07-31T21:56:55.937Z,98384.88
2022-07-31T21:59:24.616Z,98392.25
2022-07-31T22:02:01.961Z,98389.88
2022-07-31T22:04:37.270Z,98387.13
2022-07-31T22:07:25.359Z,98379.25
2022-07-31T22:10:00.475Z,98381.78
2022-07-31T22:12:38.215Z,98383.03
2022-07-31T22:15:11.296Z,98388.06
2022-07-31T22:18:18.038Z,98395.53
2022-07-31T22:20:57.735Z,98401.06
2022-07-31T22:23:31.490Z,98381.25
2022-07-31T22:26:06.086Z,98400.78
2022-07-31T22:28:41.323Z,98401.94
2022-07-31T22:31:17.856Z,98409.06
2022-07-31T22:33:47.408Z,98406.59
2022-07-31T22:36:18.686Z,98358.09
2022-07-31T22:38:56.113Z,98417.88
2022-07-31T22:41:37.595Z,98425.75
2022-07-31T22:44:13.358Z,98414.09
2022-07-31T22:46:45.558Z,98368.13
2022-07-31T22:49:16.582Z,98415.78
2022-07-31T22:51:50.118Z,98389.97
2022-07-31T22:54:23.706Z,98412.63
2022-07-31T22:56:55.323Z,98393.81
2022-07-31T22:59:27.273Z,98393.81
2022-07-31T23:01:57.841Z,98415.03
2022-07-31T23:04:36.615Z,98422.75
2022-07-31T23:07:11.365Z,98415.09
2022-07-31T23:09:49.069Z,98420.16
2022-07-31T23:12:20.834Z,98414.19
2022-07-31T23:14:54.838Z,98423.41
2022-07-31T23:17:25.960Z,98424.84
2022-07-31T23:19:57.503Z,98425.38
2022-07-31T23:22:30.607Z,98423.03
2022-07-31T23:25:20.230Z,98423.03
2022-07-31T23:27:52.452Z,98420.66
2022-07-31T23:30:24.355Z,98426.13
2022-07-31T23:32:56.001Z,98416.00
2022-07-31T23:35:33.270Z,98427.53
2022-07-31T23:38:19.844Z,98428.34
2022-07-31T23:40:58.534Z,98424.13
2022-07-31T23:43:26.945Z,98423.66
2022-07-31T23:46:04.839Z,98423.41
2022-07-31T23:48:40.841Z,98411.00
2022-07-31T23:51:18.189Z,98401.44
2022-07-31T23:53:59.108Z,98410.81
2022-07-31T23:56:35.520Z,98406.75
2022-07-31T23:59:09.416Z,98402.66
